Time;durP1;ratioP1;P1;durP2;ratioP2;P2;SDS_P1;SDS_P2;PMS_P1;PMS_P2;Temp;Humidity;BMP_temperature;BMP_pressure;BME280_temperature;BME280_humidity;BME280_pressure;Samples;Min_cycle;Max_cycle;Signal;HPM_P1;HPM_P2
2022/06/16 00:01:06;;;;;;;8.70;4.07;;;;;;;;;;5052960;28;20141;-68
2022/06/16 00:03:32;;;;;;;6.57;4.00;;;;;;;;;;5052724;28;20045;-68
2022/06/16 00:05:58;;;;;;;7.63;4.05;;;;;;;;;;5052598;28;20045;-68
2022/06/16 00:08:24;;;;;;;8.27;4.50;;;;;;;;;;5036471;28;20044;-68
2022/06/16 00:13:37;;;;;;;6.72;4.50;;;;;;;;;;5052596;28;20052;-68
2022/06/16 00:16:04;;;;;;;10.88;5.07;;;;;;;;;;5052618;28;20045;-67
2022/06/16 00:18:30;;;;;;;7.68;4.93;;;;;;;;;;5052443;28;20052;-67
2022/06/16 00:20:56;;;;;;;8.77;4.80;;;;;;;;;;5057282;28;20123;-68
2022/06/16 00:23:22;;;;;;;8.20;4.80;;;;;;;;;;5051368;28;20129;-67
2022/06/16 00:25:48;;;;;;;7.30;5.10;;;;;;;;;;5050891;28;20053;-67
2022/06/16 00:28:14;;;;;;;8.02;5.00;;;;;;;;;;5051336;28;20053;-67
2022/06/16 00:30:40;;;;;;;8.35;5.03;;;;;;;;;;5032857;28;20061;-67
2022/06/16 00:33:06;;;;;;;9.90;4.82;;;;;;;;;;5033195;28;20052;-67
2022/06/16 00:35:33;;;;;;;8.55;5.55;;;;;;;;;;5050522;28;20049;-67
2022/06/16 00:37:59;;;;;;;10.63;5.97;;;;;;;;;;5033246;28;20128;-67
2022/06/16 00:40:25;;;;;;;11.63;6.05;;;;;;;;;;5033548;28;20147;-67
2022/06/16 00:42:51;;;;;;;8.30;4.85;;;;;;;;;;5033004;28;20541;-68
2022/06/16 00:45:36;;;;;;;10.63;5.95;;;;;;;;;;5016708;28;20136;-68
2022/06/16 00:48:02;;;;;;;9.73;5.05;;;;;;;;;;5046115;28;20072;-68
2022/06/16 00:50:28;;;;;;;9.43;6.07;;;;;;;;;;5062588;28;20044;-68
2022/06/16 00:52:55;;;;;;;12.50;5.15;;;;;;;;;;5057147;28;20052;-68
2022/06/16 00:55:21;;;;;;;10.32;5.25;;;;;;;;;;5051149;28;20106;-68
2022/06/16 00:57:49;;;;;;;10.35;5.80;;;;;;;;;;5050585;28;20045;-68
2022/06/16 01:00:50;;;;;;;8.63;5.32;;;;;;;;;;5033120;28;20044;-68
2022/06/16 01:03:09;;;;;;;10.48;5.85;;;;;;;;;;5062912;28;20037;-68
2022/06/16 01:05:36;;;;;;;9.77;5.40;;;;;;;;;;5069218;28;20511;-68
2022/06/16 01:08:04;;;;;;;9.60;5.20;;;;;;;;;;5069793;28;20413;-68
2022/06/16 01:10:33;;;;;;;7.93;5.20;;;;;;;;;;5051444;28;20056;-68
2022/06/16 01:16:05;;;;;;;8.65;4.75;;;;;;;;;;5051600;28;20080;-68
2022/06/16 01:18:31;;;;;;;8.40;5.28;;;;;;;;;;5050704;28;20048;-67
2022/06/16 01:21:05;;;;;;;8.32;5.68;;;;;;;;;;5051503;28;20131;-68
2022/06/16 01:23:41;;;;;;;13.40;5.65;;;;;;;;;;5068609;28;20123;-68
2022/06/16 01:26:22;;;;;;;11.27;4.65;;;;;;;;;;5051474;28;20456;-68
2022/06/16 01:29:07;;;;;;;7.78;5.00;;;;;;;;;;5050826;28;20064;-68
2022/06/16 01:31:39;;;;;;;8.27;5.55;;;;;;;;;;5051132;28;20056;-68
2022/06/16 01:34:21;;;;;;;7.82;4.78;;;;;;;;;;5068851;28;20048;-68
2022/06/16 01:36:54;;;;;;;9.13;4.97;;;;;;;;;;5068867;28;20055;-68
2022/06/16 01:39:23;;;;;;;10.07;5.47;;;;;;;;;;5051108;28;20097;-68
2022/06/16 01:41:52;;;;;;;8.80;4.72;;;;;;;;;;5068829;28;20052;-69
2022/06/16 01:44:24;;;;;;;10.73;5.78;;;;;;;;;;5071278;22;20087;-76
2022/06/16 01:46:55;;;;;;;9.10;5.18;;;;;;;;;;5052802;28;20041;-76
2022/06/16 01:49:27;;;;;;;8.95;5.38;;;;;;;;;;5021480;28;20468;-77
2022/06/16 01:51:56;;;;;;;9.02;5.55;;;;;;;;;;5057878;28;20438;-77
2022/06/16 01:54:25;;;;;;;9.88;5.30;;;;;;;;;;5056916;28;20103;-76
2022/06/16 01:57:13;;;;;;;9.35;5.60;;;;;;;;;;5052781;28;20114;-76
2022/06/16 01:59:42;;;;;;;10.27;5.97;;;;;;;;;;5020911;28;20044;-76
2022/06/16 02:02:08;;;;;;;;;;;;;;;;;;5036490;28;20499;-77
2022/06/16 02:04:39;;;;;;;11.73;5.80;;;;;;;;;;5020003;28;19921;-76
2022/06/16 02:07:08;;;;;;;11.07;6.07;;;;;;;;;;5056073;28;20044;-77
2022/06/16 02:09:39;;;;;;;11.88;6.57;;;;;;;;;;5055425;28;20119;-77
2022/06/16 02:12:09;;;;;;;12.68;6.25;;;;;;;;;;5036221;28;20045;-77
2022/06/16 02:14:41;;;;;;;10.48;6.32;;;;;;;;;;5037366;28;20041;-76
2022/06/16 02:17:08;;;;;;;9.82;5.60;;;;;;;;;;5017866;28;20045;-76
2022/06/16 02:19:34;;;;;;;11.68;6.07;;;;;;;;;;5037176;28;20481;-76
2022/06/16 02:22:02;;;;;;;9.23;5.78;;;;;;;;;;5037343;28;20049;-76
2022/06/16 02:24:29;;;;;;;11.30;6.20;;;;;;;;;;5055387;28;20055;-76
2022/06/16 02:26:58;;;;;;;11.82;6.10;;;;;;;;;;5048589;28;20411;-76
2022/06/16 02:29:26;;;;;;;;;;;;;;;;;;5036062;28;20045;-76
2022/06/16 02:31:58;;;;;;;9.40;5.75;;;;;;;;;;5023298;28;20004;-76
2022/06/16 02:34:47;;;;;;;11.40;5.93;;;;;;;;;;5035475;28;20539;-76
2022/06/16 02:37:25;;;;;;;12.40;6.53;;;;;;;;;;5017726;28;20152;-77
2022/06/16 02:40:07;;;;;;;18.23;7.63;;;;;;;;;;5003473;28;20503;-76
2022/06/16 02:42:41;;;;;;;9.07;5.90;;;;;;;;;;5034929;28;20064;-77
2022/06/16 02:45:07;;;;;;;15.30;6.85;;;;;;;;;;5038318;28;20049;-76
2022/06/16 02:47:48;;;;;;;;;;;;;;;;;;5040756;28;20050;-77
2022/06/16 02:50:37;;;;;;;7.82;5.57;;;;;;;;;;5035829;28;19944;-77
2022/06/16 02:53:25;;;;;;;11.38;6.72;;;;;;;;;;4935975;29;20100;-76
2022/06/16 02:55:54;;;;;;;13.88;6.97;;;;;;;;;;4935451;29;20054;-77
2022/06/16 02:58:21;;;;;;;11.75;6.75;;;;;;;;;;4936178;29;20114;-77
2022/06/16 03:00:50;;;;;;;11.80;6.20;;;;;;;;;;4935345;29;20447;-76
2022/06/16 03:03:16;;;;;;;10.02;7.03;;;;;;;;;;4935579;29;20043;-76
2022/06/16 03:05:42;;;;;;;16.38;7.35;;;;;;;;;;4948075;29;20138;-76
2022/06/16 03:08:08;;;;;;;15.95;7.30;;;;;;;;;;4937889;29;20070;-77
2022/06/16 03:10:53;;;;;;;14.98;7.63;;;;;;;;;;4953894;29;20431;-77
2022/06/16 03:13:19;;;;;;;16.13;7.40;;;;;;;;;;4954724;28;20043;-76
2022/06/16 03:15:45;;;;;;;13.40;7.35;;;;;;;;;;4951136;29;20130;-77
2022/06/16 03:18:11;;;;;;;11.25;6.60;;;;;;;;;;4906621;29;20060;-74
2022/06/16 03:20:37;;;;;;;10.98;5.97;;;;;;;;;;4922400;29;20111;-77
2022/06/16 03:23:03;;;;;;;12.60;6.75;;;;;;;;;;4938544;29;20066;-76
2022/06/16 03:25:29;;;;;;;10.48;7.13;;;;;;;;;;4922506;29;20048;-76
2022/06/16 03:27:55;;;;;;;11.35;7.00;;;;;;;;;;4923083;29;20059;-76
2022/06/16 03:30:21;;;;;;;8.75;6.75;;;;;;;;;;4984955;28;20061;-76
2022/06/16 03:32:47;;;;;;;15.10;6.45;;;;;;;;;;5050061;28;20037;-76
2022/06/16 03:35:14;;;;;;;15.60;7.20;;;;;;;;;;5022419;28;20408;-76
2022/06/16 03:37:41;;;;;;;13.23;7.05;;;;;;;;;;5056994;28;20049;-76
2022/06/16 03:40:08;;;;;;;13.05;6.97;;;;;;;;;;5034075;28;20076;-76
2022/06/16 03:42:34;;;;;;;14.20;7.47;;;;;;;;;;5020172;28;20049;-76
2022/06/16 03:45:00;;;;;;;11.05;6.35;;;;;;;;;;5037670;28;20054;-76
2022/06/16 03:47:26;;;;;;;12.02;7.20;;;;;;;;;;5037584;28;20053;-77
2022/06/16 03:49:53;;;;;;;34.28;12.48;;;;;;;;;;5019445;28;20045;-77
2022/06/16 03:52:19;;;;;;;20.58;8.20;;;;;;;;;;5037681;28;20492;-76
2022/06/16 03:54:45;;;;;;;21.00;7.88;;;;;;;;;;5049161;28;20043;-76
2022/06/16 03:57:11;;;;;;;16.17;7.20;;;;;;;;;;5038890;28;20124;-76
2022/06/16 03:59:37;;;;;;;24.45;8.57;;;;;;;;;;5056082;28;20041;-76
2022/06/16 04:02:03;;;;;;;13.75;6.85;;;;;;;;;;5056364;28;20078;-76
2022/06/16 04:04:29;;;;;;;14.07;7.00;;;;;;;;;;5038394;28;20045;-76
2022/06/16 04:06:55;;;;;;;15.88;7.88;;;;;;;;;;5056399;28;20045;-76
2022/06/16 04:09:22;;;;;;;17.88;7.60;;;;;;;;;;5055938;28;20062;-76
2022/06/16 04:11:48;;;;;;;20.00;8.50;;;;;;;;;;5021560;28;20094;-77
2022/06/16 04:14:14;;;;;;;28.48;10.60;;;;;;;;;;5056113;28;20037;-76
2022/06/16 04:16:41;;;;;;;13.43;6.60;;;;;;;;;;5021674;28;20059;-76
2022/06/16 04:19:08;;;;;;;21.08;7.93;;;;;;;;;;5055336;28;20045;-76
2022/06/16 04:21:38;;;;;;;11.68;6.70;;;;;;;;;;5037565;28;20109;-76
2022/06/16 04:24:04;;;;;;;10.98;6.63;;;;;;;;;;5020330;28;20052;-76
2022/06/16 04:26:31;;;;;;;27.42;9.27;;;;;;;;;;5055207;28;20468;-76
2022/06/16 04:28:56;;;;;;;21.30;9.38;;;;;;;;;;5037757;28;20937;-76
2022/06/16 04:31:22;;;;;;;36.63;12.07;;;;;;;;;;5054875;28;20037;-76
2022/06/16 04:33:48;;;;;;;16.50;7.50;;;;;;;;;;5055193;28;20072;-76
2022/06/16 04:36:15;;;;;;;16.00;7.60;;;;;;;;;;5054979;28;20040;-76
2022/06/16 04:38:41;;;;;;;14.55;7.15;;;;;;;;;;5054860;28;20064;-76
2022/06/16 04:41:07;;;;;;;43.15;13.85;;;;;;;;;;5054788;28;20051;-77
2022/06/16 04:43:33;;;;;;;26.73;10.27;;;;;;;;;;5020334;28;20048;-76
2022/06/16 04:46:00;;;;;;;29.42;10.95;;;;;;;;;;5037007;28;20055;-77
2022/06/16 04:48:27;;;;;;;26.77;11.05;;;;;;;;;;5036233;28;20052;-76
2022/06/16 04:50:53;;;;;;;15.43;7.22;;;;;;;;;;5036588;28;20075;-76
2022/06/16 04:53:21;;;;;;;20.88;8.55;;;;;;;;;;5053526;28;20576;-76
2022/06/16 04:55:52;;;;;;;29.92;10.38;;;;;;;;;;5035635;28;20041;-76
2022/06/16 04:58:18;;;;;;;19.88;7.10;;;;;;;;;;5035116;28;20458;-76
2022/06/16 05:00:46;;;;;;;12.15;5.95;;;;;;;;;;5035796;28;20072;-77
2022/06/16 05:03:12;;;;;;;20.25;8.15;;;;;;;;;;5017877;28;20048;-76
2022/06/16 05:05:38;;;;;;;10.35;5.68;;;;;;;;;;5036839;28;20412;-76
2022/06/16 05:08:04;;;;;;;10.68;5.00;;;;;;;;;;5035622;28;20042;-76
2022/06/16 05:10:30;;;;;;;10.52;4.80;;;;;;;;;;5017177;28;20041;-76
2022/06/16 05:12:56;;;;;;;10.13;4.30;;;;;;;;;;5035089;28;20042;-76
2022/06/16 05:15:22;;;;;;;17.00;6.63;;;;;;;;;;5016909;28;20511;-76
2022/06/16 05:17:48;;;;;;;11.85;4.90;;;;;;;;;;5035081;28;20259;-76
2022/06/16 05:20:14;;;;;;;10.30;4.80;;;;;;;;;;5017438;28;20054;-76
2022/06/16 05:22:40;;;;;;;13.65;5.93;;;;;;;;;;5029721;28;20123;-76
2022/06/16 05:25:07;;;;;;;15.98;5.57;;;;;;;;;;5035201;28;20046;-75
2022/06/16 05:27:33;;;;;;;9.75;5.05;;;;;;;;;;5031127;28;20041;-76
2022/06/16 05:29:59;;;;;;;14.23;5.07;;;;;;;;;;5054144;28;20554;-75
2022/06/16 05:32:25;;;;;;;18.73;7.18;;;;;;;;;;5054588;28;20124;-76
2022/06/16 05:34:51;;;;;;;17.35;5.53;;;;;;;;;;5010441;28;20048;-76
2022/06/16 05:37:18;;;;;;;9.82;4.47;;;;;;;;;;5013246;28;20038;-76
2022/06/16 05:39:47;;;;;;;7.80;4.10;;;;;;;;;;5036097;28;20143;-75
2022/06/16 05:42:13;;;;;;;7.20;4.70;;;;;;;;;;5054154;28;20073;-75
2022/06/16 05:44:39;;;;;;;11.52;4.78;;;;;;;;;;5053736;28;20095;-75
2022/06/16 05:47:06;;;;;;;10.18;4.40;;;;;;;;;;5035414;28;20057;-75
2022/06/16 05:49:33;;;;;;;7.88;4.47;;;;;;;;;;5053766;28;20048;-76
2022/06/16 05:52:00;;;;;;;10.35;4.20;;;;;;;;;;5053154;28;20057;-76
2022/06/16 05:54:26;;;;;;;7.30;4.15;;;;;;;;;;5035942;28;20056;-74
2022/06/16 05:56:52;;;;;;;7.05;4.35;;;;;;;;;;5019105;28;20125;-76
2022/06/16 05:59:21;;;;;;;7.00;4.40;;;;;;;;;;5053299;28;20049;-76
2022/06/16 06:01:47;;;;;;;12.40;4.55;;;;;;;;;;5054670;28;20083;-76
2022/06/16 06:04:13;;;;;;;10.50;4.90;;;;;;;;;;5039468;28;20048;-75
2022/06/16 06:06:39;;;;;;;20.08;7.68;;;;;;;;;;5039429;28;20041;-75
2022/06/16 06:17:30;;;;;;;7.30;3.85;;;;;;;;;;4972723;28;20110;-75
2022/06/16 06:19:56;;;;;;;8.40;3.92;;;;;;;;;;4972689;28;20053;-75
2022/06/16 06:22:26;;;;;;;10.68;4.32;;;;;;;;;;4972470;28;20101;-75
2022/06/16 06:24:54;;;;;;;10.63;4.28;;;;;;;;;;4956702;28;20051;-76
2022/06/16 06:27:37;;;;;;;39.92;11.30;;;;;;;;;;4973136;28;20050;-74
2022/06/16 06:30:05;;;;;;;8.00;3.05;;;;;;;;;;4972695;28;20125;-76
2022/06/16 06:32:32;;;;;;;9.70;3.00;;;;;;;;;;4972339;28;20047;-75
2022/06/16 06:34:58;;;;;;;8.65;3.00;;;;;;;;;;4972358;28;20051;-74
2022/06/16 06:37:25;;;;;;;16.38;4.85;;;;;;;;;;4972435;28;20043;-78
2022/06/16 06:39:52;;;;;;;9.73;3.63;;;;;;;;;;4972640;28;20039;-77
2022/06/16 06:42:18;;;;;;;9.77;3.00;;;;;;;;;;4955873;28;20080;-76
2022/06/16 06:44:45;;;;;;;8.50;2.63;;;;;;;;;;4935536;29;20232;-75
2022/06/16 06:47:16;;;;;;;11.98;3.78;;;;;;;;;;4954193;28;20059;-77
2022/06/16 06:49:42;;;;;;;7.80;2.58;;;;;;;;;;5022139;28;20045;-73
2022/06/16 06:52:08;;;;;;;9.98;3.40;;;;;;;;;;5056838;28;20037;-75
2022/06/16 06:54:34;;;;;;;5.20;1.90;;;;;;;;;;5038970;28;20041;-76
2022/06/16 06:57:00;;;;;;;6.38;2.40;;;;;;;;;;5056808;28;20045;-74
2022/06/16 06:59:26;;;;;;;6.10;2.08;;;;;;;;;;5038661;28;20037;-75
2022/06/16 07:01:52;;;;;;;8.73;2.63;;;;;;;;;;5057474;28;20052;-76
2022/06/16 07:04:19;;;;;;;9.27;2.55;;;;;;;;;;5057887;28;20037;-75
2022/06/16 07:06:45;;;;;;;12.35;4.00;;;;;;;;;;5056654;28;20049;-74
2022/06/16 07:09:12;;;;;;;5.47;1.90;;;;;;;;;;5038979;28;20041;-77
2022/06/16 07:11:40;;;;;;;2.60;1.40;;;;;;;;;;5056560;28;20051;-74
2022/06/16 07:14:06;;;;;;;7.28;2.15;;;;;;;;;;5055821;28;20404;-74
2022/06/16 07:16:32;;;;;;;16.02;4.65;;;;;;;;;;5021676;28;20051;-75
2022/06/16 07:18:59;;;;;;;4.25;1.70;;;;;;;;;;5019643;28;20314;-73
2022/06/16 07:21:25;;;;;;;4.95;2.22;;;;;;;;;;5030736;28;20531;-76
2022/06/16 07:23:51;;;;;;;2.05;1.38;;;;;;;;;;5021771;28;20102;-74
2022/06/16 07:26:19;;;;;;;5.10;1.77;;;;;;;;;;5055832;28;20487;-74
2022/06/16 07:28:45;;;;;;;6.65;2.25;;;;;;;;;;5037317;28;20056;-75
2022/06/16 07:31:11;;;;;;;4.57;1.50;;;;;;;;;;5037837;28;20107;-75
2022/06/16 07:33:37;;;;;;;3.65;1.40;;;;;;;;;;5055540;28;20049;-74
2022/06/16 07:36:04;;;;;;;3.15;1.30;;;;;;;;;;5047195;28;20424;-75
2022/06/16 07:38:30;;;;;;;3.92;1.40;;;;;;;;;;5036360;28;20099;-75
2022/06/16 07:41:30;;;;;;;5.95;2.63;;;;;;;;;;5002452;28;20053;-74
2022/06/16 07:43:42;;;;;;;9.43;2.95;;;;;;;;;;5018784;28;20057;-75
2022/06/16 07:46:08;;;;;;;3.92;1.60;;;;;;;;;;5015387;28;20089;-75
2022/06/16 07:48:34;;;;;;;3.92;1.30;;;;;;;;;;5017850;28;20128;-75
2022/06/16 07:51:00;;;;;;;2.97;1.42;;;;;;;;;;5004182;28;20041;-75
2022/06/16 07:53:26;;;;;;;2.90;1.40;;;;;;;;;;5035942;28;20045;-75
2022/06/16 07:55:53;;;;;;;4.65;1.48;;;;;;;;;;5037221;28;20038;-75
2022/06/16 07:58:19;;;;;;;3.67;1.58;;;;;;;;;;5034967;28;20116;-75
2022/06/16 08:00:45;;;;;;;8.25;2.10;;;;;;;;;;5033651;28;20512;-75
2022/06/16 08:03:11;;;;;;;3.10;1.17;;;;;;;;;;5034118;28;20413;-74
2022/06/16 08:05:37;;;;;;;2.28;1.05;;;;;;;;;;5035199;28;20045;-74
2022/06/16 08:08:03;;;;;;;2.70;1.10;;;;;;;;;;5035258;28;20045;-75
2022/06/16 08:10:34;;;;;;;7.80;2.17;;;;;;;;;;5035655;28;20041;-75
2022/06/16 08:13:01;;;;;;;2.78;1.20;;;;;;;;;;5035206;28;20445;-74
2022/06/16 08:15:27;;;;;;;5.13;1.45;;;;;;;;;;5035117;28;20046;-74
2022/06/16 08:17:56;;;;;;;4.13;1.10;;;;;;;;;;5033560;28;20045;-75
2022/06/16 08:20:22;;;;;;;2.08;1.00;;;;;;;;;;5034827;28;20045;-74
2022/06/16 08:22:48;;;;;;;2.55;1.40;;;;;;;;;;5016814;28;20377;-75
2022/06/16 08:25:15;;;;;;;3.13;1.38;;;;;;;;;;5033996;28;20140;-75
2022/06/16 08:27:42;;;;;;;3.42;1.33;;;;;;;;;;5033788;28;20125;-76
2022/06/16 08:30:10;;;;;;;7.25;1.52;;;;;;;;;;5014657;28;20048;-76
2022/06/16 08:32:36;;;;;;;4.83;1.90;;;;;;;;;;5013632;28;20052;-77
2022/06/16 08:35:04;;;;;;;4.88;1.65;;;;;;;;;;5021211;28;20045;-74
2022/06/16 08:37:30;;;;;;;18.63;5.90;;;;;;;;;;5016571;28;20107;-76
2022/06/16 08:39:56;;;;;;;6.45;2.45;;;;;;;;;;5034384;28;20400;-76
2022/06/16 08:42:40;;;;;;;10.52;3.05;;;;;;;;;;5034546;28;20183;-76
2022/06/16 08:45:09;;;;;;;20.27;4.25;;;;;;;;;;5032937;28;20057;-77
2022/06/16 08:47:36;;;;;;;;;;;;;;;;;;5032978;28;20050;-75
2022/06/16 08:50:06;;;;;;;4.43;1.40;;;;;;;;;;5034369;28;20051;-75
2022/06/16 08:52:32;;;;;;;3.60;1.55;;;;;;;;;;5033176;28;20048;-76
2022/06/16 08:55:17;;;;;;;15.27;4.18;;;;;;;;;;5034203;28;20042;-74
2022/06/16 08:57:57;;;;;;;4.90;1.52;;;;;;;;;;5034401;28;20080;-75
2022/06/16 09:00:46;;;;;;;4.82;1.90;;;;;;;;;;5032918;28;20099;-75
2022/06/16 09:03:12;;;;;;;11.32;2.90;;;;;;;;;;5025629;28;20054;-76
2022/06/16 09:05:43;;;;;;;3.47;1.58;;;;;;;;;;5033165;28;20500;-75
2022/06/16 09:08:09;;;;;;;4.03;1.70;;;;;;;;;;5017144;28;20045;-77
2022/06/16 09:10:35;;;;;;;4.30;1.88;;;;;;;;;;5015920;28;20207;-75
2022/06/16 09:13:27;;;;;;;2.25;1.40;;;;;;;;;;5030714;28;20053;-75
2022/06/16 09:15:59;;;;;;;2.58;1.70;;;;;;;;;;5027764;28;20052;-73
2022/06/16 09:18:31;;;;;;;4.53;1.70;;;;;;;;;;5025851;28;20500;-75
2022/06/16 09:21:04;;;;;;;5.57;2.00;;;;;;;;;;5014950;28;20489;-74
2022/06/16 09:23:49;;;;;;;4.85;1.83;;;;;;;;;;5014101;28;20497;-76
2022/06/16 09:26:24;;;;;;;5.20;2.08;;;;;;;;;;5016754;28;20125;-76
2022/06/16 09:28:53;;;;;;;2.80;1.70;;;;;;;;;;5016992;28;20049;-73
2022/06/16 09:31:24;;;;;;;13.02;3.28;;;;;;;;;;5015113;28;20041;-75
2022/06/16 09:33:52;;;;;;;4.68;2.20;;;;;;;;;;5015469;28;20053;-75
2022/06/16 09:36:27;;;;;;;4.57;2.70;;;;;;;;;;5014831;28;20041;-75
2022/06/16 09:38:56;;;;;;;4.43;2.28;;;;;;;;;;5027671;28;20046;-76
2022/06/16 09:44:20;;;;;;;4.63;2.70;;;;;;;;;;5047833;22;20033;-76
2022/06/16 09:46:53;;;;;;;5.78;2.45;;;;;;;;;;5036493;28;20057;-74
2022/06/16 10:23:21;;;;;;;3.20;2.28;;;;;;;;;;4938397;28;20035;-74
2022/06/16 10:25:58;;;;;;;6.68;2.63;;;;;;;;;;4958456;28;20130;-78
2022/06/16 10:28:43;;;;;;;6.78;2.50;;;;;;;;;;5067448;28;20451;-79
2022/06/16 10:31:15;;;;;;;5.20;2.15;;;;;;;;;;5058969;28;20116;-76
2022/06/16 10:33:54;;;;;;;6.10;2.97;;;;;;;;;;5057511;28;20084;-78
2022/06/16 10:36:30;;;;;;;4.82;2.72;;;;;;;;;;5051837;28;20049;-78
2022/06/16 10:45:42;;;;;;;3.78;2.10;;;;;;;;;;5054002;28;20064;-78
2022/06/16 10:51:55;;;;;;;4.95;2.45;;;;;;;;;;5047941;28;20502;-76
2022/06/16 10:54:30;;;;;;;13.50;3.80;;;;;;;;;;5040143;28;20499;-76
2022/06/16 10:57:13;;;;;;;6.53;3.10;;;;;;;;;;5038797;28;20450;-74
2022/06/16 11:03:15;;;;;;;8.85;4.05;;;;;;;;;;5038719;28;20048;-74
2022/06/16 11:12:41;;;;;;;8.18;3.40;;;;;;;;;;4974557;28;20050;-78
2022/06/16 11:32:28;;;;;;;42.17;9.65;;;;;;;;;;4942545;28;20065;-78
2022/06/16 11:34:58;;;;;;;5.20;2.85;;;;;;;;;;4939286;29;20059;-81
2022/06/16 11:37:36;;;;;;;11.20;3.65;;;;;;;;;;4934248;29;20048;-77
2022/06/16 11:40:23;;;;;;;5.60;3.25;;;;;;;;;;4990900;28;20599;-78
2022/06/16 11:42:52;;;;;;;8.90;3.60;;;;;;;;;;4987698;28;20042;-77
2022/06/16 11:45:41;;;;;;;7.53;2.90;;;;;;;;;;5017983;28;20048;-77
2022/06/16 12:01:47;;;;;;;9.50;3.55;;;;;;;;;;4899538;29;20111;-75
2022/06/16 12:04:38;;;;;;;7.13;3.55;;;;;;;;;;4920612;29;20066;-75
2022/06/16 12:10:38;;;;;;;4.90;2.55;;;;;;;;;;4936805;29;20059;-75
2022/06/16 12:13:12;;;;;;;23.80;6.53;;;;;;;;;;4939205;29;20050;-80
2022/06/16 12:16:17;;;;;;;6.90;3.08;;;;;;;;;;4925851;29;20503;-75
2022/06/16 12:22:19;;;;;;;4.38;3.30;;;;;;;;;;4919295;29;20046;-76
2022/06/16 12:28:26;;;;;;;32.08;5.78;;;;;;;;;;4955930;28;20415;-76
2022/06/16 12:41:10;;;;;;;6.68;3.00;;;;;;;;;;5031569;28;20028;-75
2022/06/16 12:43:42;;;;;;;5.35;3.00;;;;;;;;;;5042835;28;20052;-76
2022/06/16 12:46:12;;;;;;;5.20;2.80;;;;;;;;;;5053335;28;20061;-76
2022/06/16 12:48:38;;;;;;;7.43;3.10;;;;;;;;;;5035999;28;20053;-76
2022/06/16 12:51:05;;;;;;;6.05;3.00;;;;;;;;;;5034560;28;20518;-80
2022/06/16 12:53:38;;;;;;;5.85;2.90;;;;;;;;;;5051269;28;20045;-77
2022/06/16 12:59:54;;;;;;;6.05;3.35;;;;;;;;;;5039791;28;20122;-77
2022/06/16 13:02:23;;;;;;;;;;;;;;;;;;5026763;28;20511;-75
2022/06/16 13:05:09;;;;;;;7.72;3.38;;;;;;;;;;5021391;28;19921;-75
2022/06/16 13:08:24;;;;;;;49.55;12.30;;;;;;;;;;5054243;28;20045;-75
2022/06/16 13:10:49;;;;;;;51.90;13.38;;;;;;;;;;5016764;28;20057;-75
2022/06/16 13:13:23;;;;;;;58.03;13.43;;;;;;;;;;5038273;28;20052;-76
2022/06/16 13:16:23;;;;;;;18.45;5.10;;;;;;;;;;5052067;28;20037;-76
2022/06/16 13:19:22;;;;;;;;;;;;;;;;;;;;;
2022/06/16 13:25:34;;;;;;;12.95;3.78;;;;;;;;;;4903259;29;20049;-76
2022/06/16 13:28:01;;;;;;;23.88;6.40;;;;;;;;;;4904649;29;20065;-77
2022/06/16 13:30:30;;;;;;;11.82;3.30;;;;;;;;;;4905338;29;20127;-76
2022/06/16 13:33:00;;;;;;;14.10;4.22;;;;;;;;;;4886051;29;20626;-76
2022/06/16 13:35:32;;;;;;;8.52;2.95;;;;;;;;;;4879531;29;20192;-76
2022/06/16 13:38:17;;;;;;;16.80;4.40;;;;;;;;;;4881004;29;20080;-75
2022/06/16 13:41:05;;;;;;;6.00;3.05;;;;;;;;;;4885955;29;20080;-78
2022/06/16 13:46:55;;;;;;;144.95;26.63;;;;;;;;;;4881652;29;20526;-76
2022/06/16 13:49:32;;;;;;;9.55;3.10;;;;;;;;;;4891476;29;20087;-75
2022/06/16 13:52:16;;;;;;;5.45;2.50;;;;;;;;;;4883229;29;20061;-75
2022/06/16 13:54:45;;;;;;;7.50;3.00;;;;;;;;;;4889877;29;20194;-75
2022/06/16 13:57:32;;;;;;;27.50;6.00;;;;;;;;;;4896507;29;20127;-75
2022/06/16 14:00:31;;;;;;;38.38;7.15;;;;;;;;;;4973349;28;20399;-75
2022/06/16 14:03:40;;;;;;;262.92;48.67;;;;;;;;;;5053338;28;20104;-75
2022/06/16 14:05:55;;;;;;;9.43;3.30;;;;;;;;;;5006758;28;20128;-76
2022/06/16 14:08:40;;;;;;;6.72;2.78;;;;;;;;;;5045959;28;20044;-77
2022/06/16 14:14:24;;;;;;;33.53;8.50;;;;;;;;;;5035761;28;20057;-77
2022/06/16 14:16:58;;;;;;;7.65;2.80;;;;;;;;;;5041129;28;20137;-75
2022/06/16 14:19:30;;;;;;;7.45;2.65;;;;;;;;;;5051101;22;20080;-69
2022/06/16 14:22:01;;;;;;;4.80;2.88;;;;;;;;;;5045659;28;20041;-69
2022/06/16 14:24:27;;;;;;;43.30;9.10;;;;;;;;;;5031111;28;20049;-69
2022/06/16 14:26:54;;;;;;;21.27;6.15;;;;;;;;;;5031739;28;20045;-70
2022/06/16 14:29:23;;;;;;;16.77;4.45;;;;;;;;;;5015651;28;20049;-69
2022/06/16 14:32:03;;;;;;;12.55;4.15;;;;;;;;;;5049103;28;20393;-70
2022/06/16 14:34:36;;;;;;;14.07;3.50;;;;;;;;;;5031694;28;20477;-70
2022/06/16 14:37:13;;;;;;;4.18;2.70;;;;;;;;;;5031602;28;20048;-69
2022/06/16 14:39:45;;;;;;;11.90;4.38;;;;;;;;;;5049089;28;20052;-70
2022/06/16 14:42:17;;;;;;;14.55;4.35;;;;;;;;;;5049202;28;20048;-70
2022/06/16 14:44:46;;;;;;;4.97;2.40;;;;;;;;;;5031187;28;20171;-69
2022/06/16 14:47:20;;;;;;;19.88;5.05;;;;;;;;;;5048741;28;20123;-69
2022/06/16 14:50:06;;;;;;;6.45;2.90;;;;;;;;;;5043385;28;20364;-69
2022/06/16 14:52:35;;;;;;;8.95;4.13;;;;;;;;;;5046272;28;20056;-70
2022/06/16 14:55:07;;;;;;;4.03;2.60;;;;;;;;;;5068924;28;20084;-69
2022/06/16 14:57:36;;;;;;;7.45;3.47;;;;;;;;;;5068505;28;20048;-69
2022/06/16 15:00:04;;;;;;;14.52;3.85;;;;;;;;;;5033989;28;20098;-70
2022/06/16 15:02:32;;;;;;;4.07;2.50;;;;;;;;;;5049830;28;20489;-69
2022/06/16 15:05:00;;;;;;;10.90;3.05;;;;;;;;;;5067991;28;20041;-69
2022/06/16 15:07:27;;;;;;;4.70;2.58;;;;;;;;;;5050566;28;20087;-70
2022/06/16 15:09:55;;;;;;;6.20;2.88;;;;;;;;;;5071075;28;20055;-70
2022/06/16 15:12:21;;;;;;;7.10;3.00;;;;;;;;;;5072057;28;20045;-69
2022/06/16 15:14:48;;;;;;;4.80;2.55;;;;;;;;;;5053993;28;20048;-70
2022/06/16 15:20:06;;;;;;;4.57;2.45;;;;;;;;;;5053518;28;20064;-69
2022/06/16 15:22:38;;;;;;;16.23;4.47;;;;;;;;;;5046302;28;20085;-69
2022/06/16 15:25:05;;;;;;;7.22;2.72;;;;;;;;;;5034932;28;20056;-70
2022/06/16 15:27:31;;;;;;;4.50;2.65;;;;;;;;;;5017921;28;20080;-68
2022/06/16 15:29:59;;;;;;;11.32;3.78;;;;;;;;;;5052658;28;20104;-69
2022/06/16 15:38:10;;;;;;;6.70;2.85;;;;;;;;;;5034741;28;20093;-69
2022/06/16 15:40:37;;;;;;;7.97;2.78;;;;;;;;;;5034648;28;20543;-69
2022/06/16 15:43:04;;;;;;;6.28;2.63;;;;;;;;;;5052712;28;20099;-70
2022/06/16 15:45:30;;;;;;;6.78;2.72;;;;;;;;;;5052391;28;20041;-70
2022/06/16 15:47:56;;;;;;;13.32;3.85;;;;;;;;;;5052018;28;20048;-70
2022/06/16 15:50:24;;;;;;;9.60;3.50;;;;;;;;;;5052329;28;20048;-70
2022/06/16 15:52:59;;;;;;;7.07;3.08;;;;;;;;;;5027862;28;20049;-70
2022/06/16 15:55:27;;;;;;;12.80;4.25;;;;;;;;;;5034430;28;20049;-70
2022/06/16 15:57:54;;;;;;;10.63;3.58;;;;;;;;;;5052271;28;20039;-70
2022/06/16 16:00:27;;;;;;;7.90;2.83;;;;;;;;;;5018178;28;20049;-70
2022/06/16 16:02:56;;;;;;;5.05;2.63;;;;;;;;;;5017105;28;20053;-70
2022/06/16 16:05:24;;;;;;;3.83;2.25;;;;;;;;;;5052180;28;20451;-70
2022/06/16 16:07:50;;;;;;;;;;;;;;;;;;5034167;28;20049;-70
2022/06/16 16:10:20;;;;;;;5.22;2.70;;;;;;;;;;5052170;28;20266;-70
2022/06/16 16:13:03;;;;;;;11.98;3.85;;;;;;;;;;5017484;28;20202;-70
2022/06/16 16:15:29;;;;;;;5.68;2.90;;;;;;;;;;5033993;28;20120;-70
2022/06/16 16:17:57;;;;;;;6.57;2.22;;;;;;;;;;5033683;28;20049;-71
2022/06/16 16:20:26;;;;;;;4.70;3.67;;;;;;;;;;5050522;28;20401;-70
2022/06/16 16:22:59;;;;;;;6.93;3.17;;;;;;;;;;5051886;28;20061;-70
2022/06/16 16:25:36;;;;;;;5.18;2.72;;;;;;;;;;5051647;28;20041;-69
2022/06/16 16:28:02;;;;;;;;;;;;;;;;;;5071536;28;20037;-68
2022/06/16 16:30:32;;;;;;;4.95;2.38;;;;;;;;;;5070334;28;19995;-69
2022/06/16 16:32:58;;;;;;;22.73;9.60;;;;;;;;;;5038771;28;20457;-70
2022/06/16 16:35:25;;;;;;;7.90;5.03;;;;;;;;;;5052998;28;20388;-69
2022/06/16 16:37:51;;;;;;;6.60;2.88;;;;;;;;;;5033961;28;20049;-69
2022/06/16 16:40:18;;;;;;;6.57;2.95;;;;;;;;;;5033401;28;20099;-68
2022/06/16 16:43:00;;;;;;;6.22;2.85;;;;;;;;;;5051094;28;20052;-69
2022/06/16 16:45:45;;;;;;;19.15;9.65;;;;;;;;;;5024053;28;20045;-69
2022/06/16 16:48:21;;;;;;;6.10;3.58;;;;;;;;;;5066875;28;20120;-69
2022/06/16 16:51:10;;;;;;;3.85;2.65;;;;;;;;;;5045800;28;20086;-68
2022/06/16 16:53:40;;;;;;;3.78;2.55;;;;;;;;;;5051513;28;20394;-69
2022/06/16 16:56:10;;;;;;;8.18;3.13;;;;;;;;;;5058380;28;20045;-68
2022/06/16 16:58:37;;;;;;;4.95;2.53;;;;;;;;;;5034808;28;20509;-69
2022/06/16 17:01:03;;;;;;;5.73;3.00;;;;;;;;;;5050311;28;20504;-69
2022/06/16 17:03:30;;;;;;;8.63;3.38;;;;;;;;;;5068078;28;20044;-68
2022/06/16 17:05:56;;;;;;;4.70;3.00;;;;;;;;;;5057164;28;20049;-68
2022/06/16 17:08:22;;;;;;;4.03;3.15;;;;;;;;;;5051013;28;20077;-69
2022/06/16 17:11:50;;;;;;;5.45;2.97;;;;;;;;;;5033035;28;20138;-69
2022/06/16 17:13:34;;;;;;;3.25;2.58;;;;;;;;;;5049995;28;20056;-69
2022/06/16 17:16:01;;;;;;;4.80;2.83;;;;;;;;;;5030732;28;20504;-69
2022/06/16 17:18:27;;;;;;;6.65;2.88;;;;;;;;;;5037425;28;20049;-69
2022/06/16 17:20:53;;;;;;;7.88;3.33;;;;;;;;;;5032750;28;20057;-68
2022/06/16 17:23:19;;;;;;;7.43;2.97;;;;;;;;;;5029904;28;20124;-68
2022/06/16 17:25:45;;;;;;;5.55;3.05;;;;;;;;;;5050215;28;20051;-69